createdAt,value
2017-12-03T00:01:13.340Z,101306.73
2017-12-03T00:03:40.871Z,101305.83
2017-12-03T00:06:08.416Z,101306.41
2017-12-03T00:08:35.982Z,101301.17
2017-12-03T00:11:03.585Z,101299.17
2017-12-03T00:13:31.068Z,101295.13
2017-12-03T00:15:58.630Z,101295.02
2017-12-03T00:18:26.555Z,101292.91
2017-12-03T00:20:54.367Z,101292.41
2017-12-03T00:23:21.840Z,101291.62
2017-12-03T00:25:50.327Z,101291.88
2017-12-03T00:28:22.896Z,101283.67
2017-12-03T00:30:50.345Z,101287.39
2017-12-03T00:33:18.076Z,101286.09
2017-12-03T00:35:45.521Z,101289.11
2017-12-03T00:38:17.970Z,101298.66
2017-12-03T00:40:45.457Z,101291.83
2017-12-03T00:43:12.917Z,101286.67
2017-12-03T00:45:40.619Z,101290.58
2017-12-03T00:48:17.996Z,101288.16
2017-12-03T00:50:45.697Z,101286.92
2017-12-03T00:53:13.337Z,101285.28
2017-12-03T00:55:40.776Z,101286.18
2017-12-03T01:00:41.787Z,101279.54
2017-12-03T01:03:09.600Z,101283.88
2017-12-03T01:05:37.064Z,101294.33
2017-12-03T01:08:04.602Z,101287.47
2017-12-03T01:13:08.767Z,101286.27
2017-12-03T01:15:36.298Z,101287.26
2017-12-03T01:18:08.706Z,101288.78
2017-12-03T01:20:37.779Z,101283.97
2017-12-03T01:23:06.292Z,101280.55
2017-12-03T01:25:33.803Z,101279.23
2017-12-03T01:28:01.402Z,101278.50
2017-12-03T01:30:29.659Z,101273.05
2017-12-03T01:32:59.882Z,101271.33
2017-12-03T01:35:28.980Z,101273.28
2017-12-03T01:37:58.434Z,101270.69
2017-12-03T01:40:26.687Z,101269.16
2017-12-03T01:42:54.787Z,101263.35
2017-12-03T01:45:23.008Z,101269.79
2017-12-03T01:48:00.420Z,101262.52
2017-12-03T01:50:27.877Z,101262.05
2017-12-03T01:52:55.413Z,101260.42
2017-12-03T01:55:22.888Z,101268.16
2017-12-03T01:57:50.408Z,101271.86
2017-12-03T02:00:17.928Z,101267.83
2017-12-03T02:02:45.394Z,101270.14
2017-12-03T02:05:13.013Z,101268.94
2017-12-03T02:07:40.472Z,101274.78
2017-12-03T02:10:07.929Z,101271.83
2017-12-03T02:12:35.449Z,101267.80
2017-12-03T02:15:02.963Z,101262.15
2017-12-03T02:17:30.469Z,101258.61
2017-12-03T02:19:57.956Z,101255.36
2017-12-03T02:22:25.425Z,101253.14
2017-12-03T02:27:25.261Z,101254.31
2017-12-03T02:29:53.475Z,101254.80
2017-12-03T02:32:20.926Z,101253.02
2017-12-03T02:34:50.252Z,101248.67
2017-12-03T02:37:17.753Z,101245.64
2017-12-03T02:39:45.257Z,101242.91
2017-12-03T02:42:13.092Z,101242.68
2017-12-03T02:44:40.636Z,101233.25
2017-12-03T02:47:08.129Z,101241.45
2017-12-03T02:49:36.055Z,101234.78
2017-12-03T02:52:03.508Z,101236.84
2017-12-03T02:54:31.066Z,101234.31
2017-12-03T02:56:58.542Z,101227.17
2017-12-03T02:59:26.041Z,101222.05
2017-12-03T03:01:53.490Z,101221.13
2017-12-03T03:04:22.862Z,101224.08
2017-12-03T03:06:50.361Z,101224.92
2017-12-03T03:09:17.918Z,101224.98
2017-12-03T03:11:45.384Z,101225.18
2017-12-03T03:14:13.749Z,101220.69
2017-12-03T03:16:41.731Z,101221.16
2017-12-03T03:19:09.204Z,101217.85
2017-12-03T03:21:36.959Z,101220.74
2017-12-03T03:24:05.019Z,101212.73
2017-12-03T03:26:32.482Z,101217.06
2017-12-03T03:28:59.985Z,101219.60
2017-12-03T03:31:27.482Z,101210.87
2017-12-03T03:33:55.819Z,101213.99
2017-12-03T03:36:23.325Z,101214.35
2017-12-03T03:38:51.892Z,101210.00
2017-12-03T03:41:19.625Z,101207.39
2017-12-03T03:43:47.141Z,101200.27
2017-12-03T03:46:14.654Z,101198.06
2017-12-03T03:48:42.137Z,101197.64
2017-12-03T03:51:09.567Z,101198.52
2017-12-03T03:53:37.087Z,101200.02
2017-12-03T03:56:04.586Z,101197.94
2017-12-03T03:58:32.204Z,101193.19
2017-12-03T04:00:59.739Z,101197.43
2017-12-03T04:03:27.240Z,101199.53
2017-12-03T04:05:54.676Z,101191.57
2017-12-03T04:08:22.476Z,101202.00
2017-12-03T04:10:49.936Z,101194.59
2017-12-03T04:13:17.404Z,101196.09
2017-12-03T04:15:44.899Z,101195.16
2017-12-03T04:18:12.394Z,101195.13
2017-12-03T04:20:39.904Z,101193.11
2017-12-03T04:23:07.661Z,101192.89
2017-12-03T04:25:35.114Z,101202.33
2017-12-03T04:28:02.606Z,101206.46
2017-12-03T04:30:30.375Z,101204.64
2017-12-03T04:32:57.960Z,101210.86
2017-12-03T04:35:25.713Z,101210.95
2017-12-03T04:37:53.181Z,101204.58
2017-12-03T04:40:20.662Z,101211.58
2017-12-03T04:42:48.191Z,101207.44
2017-12-03T04:45:15.645Z,101203.82
2017-12-03T04:47:46.885Z,101204.13
2017-12-03T04:50:14.400Z,101201.72
2017-12-03T04:52:41.873Z,101191.75
2017-12-03T04:55:09.635Z,101191.27
2017-12-03T04:57:37.131Z,101186.60
2017-12-03T05:00:04.798Z,101179.59
2017-12-03T05:02:32.300Z,101177.69
2017-12-03T05:04:59.760Z,101179.83
2017-12-03T05:07:27.339Z,101185.92
2017-12-03T05:09:54.794Z,101182.69
2017-12-03T05:12:22.295Z,101184.38
2017-12-03T05:14:49.745Z,101176.78
2017-12-03T05:17:17.245Z,101174.58
2017-12-03T05:19:49.746Z,101174.58
2017-12-03T05:22:17.211Z,101169.95
2017-12-03T05:24:44.682Z,101168.05
2017-12-03T05:27:12.145Z,101161.28
2017-12-03T05:29:39.589Z,101170.13
2017-12-03T05:32:07.081Z,101163.86
2017-12-03T05:34:34.586Z,101157.24
2017-12-03T05:37:02.090Z,101156.70
2017-12-03T05:39:29.601Z,101155.79
2017-12-03T05:41:57.098Z,101150.61
2017-12-03T05:44:24.633Z,101155.29
2017-12-03T05:46:52.120Z,101158.06
2017-12-03T05:49:33.890Z,101162.61
2017-12-03T05:52:01.379Z,101165.06
2017-12-03T05:54:28.905Z,101156.72
2017-12-03T05:56:57.076Z,101159.75
2017-12-03T05:59:25.332Z,101161.40
2017-12-03T06:01:52.816Z,101156.33
2017-12-03T06:04:20.359Z,101156.27
2017-12-03T06:06:47.936Z,101162.79
2017-12-03T06:09:29.935Z,101161.03
2017-12-03T06:11:57.667Z,101155.72
2017-12-03T06:14:25.193Z,101159.05
2017-12-03T06:16:52.768Z,101157.27
2017-12-03T06:19:20.488Z,101158.48
2017-12-03T06:21:48.029Z,101160.87
2017-12-03T06:24:15.552Z,101157.50
2017-12-03T06:26:43.090Z,101156.30
2017-12-03T06:32:03.113Z,101152.08
2017-12-03T06:34:30.672Z,101157.84
2017-12-03T06:36:58.165Z,101157.42
2017-12-03T06:39:25.629Z,101155.64
2017-12-03T06:41:53.123Z,101160.86
2017-12-03T06:44:20.629Z,101165.31
2017-12-03T06:46:48.100Z,101163.28
2017-12-03T06:49:15.564Z,101167.61
2017-12-03T06:51:43.101Z,101164.17
2017-12-03T06:54:10.563Z,101168.56
2017-12-03T06:56:38.092Z,101171.80
2017-12-03T06:59:05.665Z,101178.87
2017-12-03T07:01:33.377Z,101183.70
2017-12-03T07:04:00.938Z,101187.14
2017-12-03T07:06:28.963Z,101180.13
2017-12-03T07:09:06.128Z,101182.43
2017-12-03T07:11:33.589Z,101183.28
2017-12-03T07:14:01.049Z,101175.07
2017-12-03T07:16:28.707Z,101176.19
2017-12-03T07:19:06.202Z,101176.72
2017-12-03T07:21:33.727Z,101177.93
2017-12-03T07:24:01.166Z,101172.39
2017-12-03T07:26:28.622Z,101173.77
2017-12-03T07:29:15.404Z,101177.23
2017-12-03T07:31:42.942Z,101173.73
2017-12-03T07:34:10.391Z,101170.02
2017-12-03T07:36:37.892Z,101170.17
2017-12-03T07:39:05.324Z,101169.06
2017-12-03T07:41:32.818Z,101177.44
2017-12-03T07:44:00.322Z,101181.67
2017-12-03T07:46:27.850Z,101185.80
2017-12-03T07:48:55.344Z,101185.45
2017-12-03T07:51:22.912Z,101187.20
2017-12-03T07:53:50.478Z,101188.12
2017-12-03T07:56:17.951Z,101187.25
2017-12-03T07:58:45.511Z,101191.88
2017-12-03T08:01:13.576Z,101192.19
2017-12-03T08:03:41.097Z,101191.05
2017-12-03T08:06:08.569Z,101180.92
2017-12-03T08:08:37.869Z,101179.42
2017-12-03T08:11:05.346Z,101183.69
2017-12-03T08:13:32.790Z,101191.45
2017-12-03T08:16:00.396Z,101189.48
2017-12-03T08:18:27.918Z,101194.70
2017-12-03T08:20:55.392Z,101195.87
2017-12-03T08:23:22.890Z,101198.61
2017-12-03T08:25:50.453Z,101191.83
2017-12-03T08:28:17.956Z,101190.17
2017-12-03T08:30:45.473Z,101192.30
2017-12-03T08:33:12.970Z,101180.31
2017-12-03T08:35:40.505Z,101183.00
2017-12-03T08:38:08.017Z,101185.13
2017-12-03T08:40:35.456Z,101182.37
2017-12-03T08:43:02.968Z,101188.31
2017-12-03T08:45:30.447Z,101183.08
2017-12-03T08:48:12.198Z,101187.03
2017-12-03T08:50:39.790Z,101179.55
2017-12-03T08:53:08.070Z,101177.17
2017-12-03T08:55:35.616Z,101186.05
2017-12-03T08:58:03.091Z,101177.43
2017-12-03T09:00:31.399Z,101175.45
2017-12-03T09:02:58.926Z,101164.42
2017-12-03T09:05:26.422Z,101164.14
2017-12-03T09:07:58.988Z,101168.51
2017-12-03T09:10:26.590Z,101167.16
2017-12-03T09:12:54.083Z,101158.31
2017-12-03T09:15:21.641Z,101152.95
2017-12-03T09:17:49.181Z,101147.95
2017-12-03T09:20:16.728Z,101143.25
2017-12-03T09:22:44.293Z,101150.33
2017-12-03T09:25:11.793Z,101143.08
2017-12-03T09:27:39.473Z,101145.63
2017-12-03T09:30:09.099Z,101136.38
2017-12-03T09:32:37.600Z,101137.20
2017-12-03T09:35:10.088Z,101133.28
2017-12-03T09:37:39.622Z,101127.25
2017-12-03T09:40:13.156Z,101133.89
2017-12-03T09:42:43.119Z,101130.86
2017-12-03T09:45:10.831Z,101130.37
2017-12-03T09:47:39.738Z,101123.59
2017-12-03T09:50:08.182Z,101124.28
2017-12-03T09:52:37.639Z,101120.84
2017-12-03T09:55:06.077Z,101118.83
2017-12-03T09:57:33.761Z,101125.86
2017-12-03T10:02:34.617Z,101114.70
2017-12-03T10:05:02.202Z,101116.92
2017-12-03T10:07:29.836Z,101110.77
2017-12-03T10:09:57.382Z,101104.95
2017-12-03T10:12:26.375Z,101101.02
2017-12-03T10:14:53.923Z,101099.19
2017-12-03T10:17:22.397Z,101099.20
2017-12-03T10:19:50.842Z,101095.48
2017-12-03T10:22:19.654Z,101092.88
2017-12-03T10:24:47.365Z,101096.81
2017-12-03T10:27:15.717Z,101091.66
2017-12-03T10:29:44.546Z,101088.06
2017-12-03T10:32:12.910Z,101077.91
2017-12-03T10:34:46.026Z,101079.70
2017-12-03T10:42:49.223Z,101075.06
2017-12-03T10:45:18.209Z,101077.20
2017-12-03T10:50:24.213Z,101071.97
2017-12-03T10:55:37.416Z,101054.92
2017-12-03T10:58:05.681Z,101056.74
2017-12-03T11:00:33.953Z,101045.86
2017-12-03T11:03:01.782Z,101043.23
2017-12-03T11:05:33.704Z,101038.83
2017-12-03T11:08:02.352Z,101032.28
2017-12-03T11:10:30.794Z,101025.94
2017-12-03T11:13:04.052Z,101028.45
2017-12-03T11:15:32.779Z,101028.87
2017-12-03T11:20:45.151Z,101036.00
2017-12-03T11:23:12.646Z,101031.66
2017-12-03T11:25:44.649Z,101036.63
2017-12-03T11:28:13.254Z,101023.42
2017-12-03T11:30:41.259Z,101028.66
2017-12-03T11:33:08.818Z,101025.33
2017-12-03T11:35:38.552Z,101019.68
2017-12-03T11:38:07.123Z,101014.55
2017-12-03T11:40:34.660Z,101012.14
2017-12-03T11:43:03.152Z,101004.48
2017-12-03T11:45:31.374Z,101000.55
2017-12-03T11:47:59.715Z,100999.55
2017-12-03T11:50:28.464Z,100993.00
2017-12-03T11:52:58.939Z,101000.55
2017-12-03T11:55:27.584Z,100986.05
2017-12-03T11:58:03.320Z,100977.80
2017-12-03T12:00:32.879Z,100985.86
2017-12-03T12:03:05.178Z,100974.98
2017-12-03T12:05:34.398Z,100978.53
2017-12-03T12:08:06.814Z,100977.62
2017-12-03T12:10:34.787Z,100972.56
2017-12-03T12:13:03.385Z,100968.95
2017-12-03T12:15:32.674Z,100969.48
2017-12-03T12:26:37.141Z,100941.80
2017-12-03T12:29:06.305Z,100946.11
2017-12-03T12:31:42.686Z,100936.36
2017-12-03T12:34:14.559Z,100934.53
2017-12-03T12:36:42.146Z,100936.25
2017-12-03T12:39:09.860Z,100924.36
2017-12-03T12:41:38.310Z,100933.62
2017-12-03T12:44:05.825Z,100923.47
2017-12-03T12:46:34.149Z,100933.33
2017-12-03T12:49:02.216Z,100932.33
2017-12-03T12:51:30.014Z,100918.94
2017-12-03T12:53:58.491Z,100919.36
2017-12-03T12:56:26.493Z,100916.64
2017-12-03T12:59:03.674Z,100912.22
2017-12-03T13:01:35.053Z,100909.81
2017-12-03T13:04:02.629Z,100904.95
2017-12-03T13:06:30.263Z,100899.34
2017-12-03T13:08:58.006Z,100891.98
2017-12-03T13:11:29.270Z,100897.31
2017-12-03T13:13:57.041Z,100883.03
2017-12-03T13:19:15.051Z,100889.18
2017-12-03T13:21:42.961Z,100881.64
2017-12-03T13:26:43.332Z,100884.25
2017-12-03T13:29:12.937Z,100870.38
2017-12-03T13:31:41.229Z,100870.46
2017-12-03T13:34:12.796Z,100863.64
2017-12-03T13:36:40.590Z,100861.52
2017-12-03T13:42:00.710Z,100859.63
2017-12-03T13:44:30.118Z,100863.24
2017-12-03T13:46:57.644Z,100860.42
2017-12-03T13:49:27.964Z,100855.61
2017-12-03T13:51:55.564Z,100860.84
2017-12-03T13:54:23.316Z,100855.89
2017-12-03T13:56:51.084Z,100854.37
2017-12-03T13:59:18.667Z,100845.16
2017-12-03T14:01:46.365Z,100851.49
2017-12-03T14:04:13.925Z,100846.64
2017-12-03T14:06:42.693Z,100841.03
2017-12-03T14:09:20.590Z,100850.30
2017-12-03T14:11:48.856Z,100838.11
2017-12-03T14:16:50.000Z,100837.22
2017-12-03T14:19:17.444Z,100838.02
2017-12-03T14:21:45.024Z,100840.52
2017-12-03T14:24:12.519Z,100839.91
2017-12-03T14:26:40.003Z,100835.88
2017-12-03T14:29:09.036Z,100829.55
2017-12-03T14:34:29.099Z,100835.52
2017-12-03T14:36:56.551Z,100844.67
2017-12-03T14:39:43.293Z,100844.36
2017-12-03T14:42:10.814Z,100843.63
2017-12-03T14:44:38.330Z,100840.02
2017-12-03T14:47:05.833Z,100832.59
2017-12-03T14:49:33.590Z,100827.05
2017-12-03T14:52:01.430Z,100825.66
2017-12-03T14:54:29.224Z,100823.25
2017-12-03T14:56:56.783Z,100819.81
2017-12-03T14:59:43.548Z,100825.66
2017-12-03T15:02:11.113Z,100830.00
2017-12-03T15:04:40.271Z,100828.97
2017-12-03T15:07:08.355Z,100824.45
2017-12-03T15:09:36.043Z,100830.48
2017-12-03T15:12:05.186Z,100835.40
2017-12-03T15:14:41.048Z,100832.50
2017-12-03T15:17:10.248Z,100832.89
2017-12-03T15:20:01.871Z,100827.86
2017-12-03T15:22:29.588Z,100828.86
2017-12-03T15:24:57.696Z,100832.30
2017-12-03T15:27:28.023Z,100825.56
2017-12-03T15:30:19.197Z,100823.95
2017-12-03T15:32:47.737Z,100824.56
2017-12-03T15:35:15.293Z,100828.48
2017-12-03T15:37:43.099Z,100828.38
2017-12-03T15:40:10.657Z,100832.80
2017-12-03T15:42:38.450Z,100825.67
2017-12-03T15:45:06.166Z,100830.17
2017-12-03T15:47:33.731Z,100822.13
2017-12-03T15:50:01.283Z,100827.97
2017-12-03T15:52:28.833Z,100816.83
2017-12-03T15:54:56.416Z,100815.52
2017-12-03T15:57:23.971Z,100811.59
2017-12-03T15:59:51.433Z,100815.69
2017-12-03T16:02:18.893Z,100818.30
2017-12-03T16:04:46.440Z,100808.77
2017-12-03T16:07:14.666Z,100811.70
2017-12-03T16:09:42.201Z,100808.47
2017-12-03T16:12:09.878Z,100815.20
2017-12-03T16:14:37.410Z,100811.38
2017-12-03T16:17:04.961Z,100813.69
2017-12-03T16:19:32.448Z,100819.42
2017-12-03T16:21:59.951Z,100814.20
2017-12-03T16:24:28.188Z,100820.63
2017-12-03T16:26:55.626Z,100816.70
2017-12-03T16:29:23.636Z,100814.88
2017-12-03T16:31:51.102Z,100809.86
2017-12-03T16:34:18.613Z,100812.80
2017-12-03T16:36:46.109Z,100811.97
2017-12-03T16:39:19.268Z,100819.92
2017-12-03T16:41:46.962Z,100810.86
2017-12-03T16:44:14.457Z,100823.45
2017-12-03T16:46:42.889Z,100821.73
2017-12-03T16:49:10.374Z,100819.53
2017-12-03T16:51:39.601Z,100818.80
2017-12-03T16:54:07.865Z,100815.50
2017-12-03T16:56:35.402Z,100818.23
2017-12-03T16:59:02.920Z,100817.09
2017-12-03T17:01:30.552Z,100817.80
2017-12-03T17:03:58.379Z,100815.61
2017-12-03T17:06:25.882Z,100813.10
2017-12-03T17:08:54.492Z,100819.13
2017-12-03T17:11:22.220Z,100815.30
2017-12-03T17:13:49.804Z,100813.29
2017-12-03T17:16:17.841Z,100810.20
2017-12-03T17:18:46.324Z,100813.84
2017-12-03T17:21:13.860Z,100818.45
2017-12-03T17:23:41.750Z,100815.34
2017-12-03T17:26:12.106Z,100813.25
2017-12-03T17:28:39.785Z,100813.36
2017-12-03T17:31:07.253Z,100818.09
2017-12-03T17:33:34.761Z,100818.50
2017-12-03T17:36:02.627Z,100814.27
2017-12-03T17:38:53.786Z,100818.88
2017-12-03T17:41:21.313Z,100814.06
2017-12-03T17:43:48.798Z,100812.97
2017-12-03T17:46:16.468Z,100808.73
2017-12-03T17:48:44.999Z,100819.81
2017-12-03T17:51:12.870Z,100817.88
2017-12-03T17:53:40.436Z,100819.81
2017-12-03T17:56:07.887Z,100818.88
2017-12-03T17:58:40.423Z,100819.50
2017-12-03T18:01:07.910Z,100820.81
2017-12-03T18:03:35.516Z,100808.14
2017-12-03T18:06:03.236Z,100818.39
2017-12-03T18:08:40.419Z,100816.87
2017-12-03T18:11:08.193Z,100829.85
2017-12-03T18:13:38.123Z,100822.11
2017-12-03T18:16:05.834Z,100825.34
2017-12-03T18:18:47.677Z,100834.97
2017-12-03T18:21:15.413Z,100829.16
2017-12-03T18:23:42.966Z,100821.78
2017-12-03T18:26:10.543Z,100816.47
2017-12-03T18:28:38.023Z,100817.86
2017-12-03T18:31:05.562Z,100821.09
2017-12-03T18:33:33.448Z,100814.97
2017-12-03T18:36:01.943Z,100814.23
2017-12-03T18:38:29.447Z,100824.70
2017-12-03T18:40:56.973Z,100823.81
2017-12-03T18:43:24.450Z,100823.19
2017-12-03T18:45:52.052Z,100823.41
2017-12-03T18:48:19.504Z,100823.50
2017-12-03T18:50:47.259Z,100821.78
2017-12-03T18:53:18.884Z,100822.50
2017-12-03T18:55:46.826Z,100814.23
2017-12-03T18:58:14.880Z,100818.05
2017-12-03T19:00:44.471Z,100818.58
2017-12-03T19:03:12.860Z,100819.67
2017-12-03T19:05:40.427Z,100816.73
2017-12-03T19:08:08.197Z,100825.30
2017-12-03T19:10:36.112Z,100818.14
2017-12-03T19:13:04.121Z,100810.59
2017-12-03T19:15:34.845Z,100813.72
2017-12-03T19:18:21.603Z,100809.59
2017-12-03T19:20:50.346Z,100805.77
2017-12-03T19:23:23.103Z,100807.70
2017-12-03T19:28:42.099Z,100803.33
2017-12-03T19:31:12.918Z,100807.55
2017-12-03T19:33:42.611Z,100805.63
2017-12-03T19:38:53.476Z,100810.37
2017-12-03T19:41:21.263Z,100802.81
2017-12-03T19:43:49.121Z,100799.59
2017-12-03T19:46:19.111Z,100799.47
2017-12-03T19:48:46.964Z,100806.09
2017-12-03T19:51:15.013Z,100811.03
2017-12-03T19:53:42.607Z,100807.92
2017-12-03T19:56:10.435Z,100812.54
2017-12-03T19:58:38.292Z,100805.70
2017-12-03T20:01:05.895Z,100810.12
2017-12-03T20:03:33.397Z,100799.76
2017-12-03T20:06:01.101Z,100796.66
2017-12-03T20:08:28.560Z,100799.66
2017-12-03T20:10:56.050Z,100805.51
2017-12-03T20:13:23.579Z,100797.55
2017-12-03T20:15:51.305Z,100797.97
2017-12-03T20:18:19.175Z,100801.97
2017-12-03T20:20:46.658Z,100804.89
2017-12-03T20:23:14.580Z,100797.45
2017-12-03T20:25:42.080Z,100805.89
2017-12-03T20:28:09.917Z,100800.27
2017-12-03T20:30:38.328Z,100800.38
2017-12-03T20:33:05.857Z,100802.67
2017-12-03T20:35:33.378Z,100799.16
2017-12-03T20:38:01.060Z,100794.62
2017-12-03T20:40:28.538Z,100796.44
2017-12-03T20:42:56.825Z,100795.13
2017-12-03T20:45:24.447Z,100796.23
2017-12-03T20:47:52.051Z,100800.05
2017-12-03T20:50:19.577Z,100800.64
2017-12-03T20:52:47.119Z,100801.84
2017-12-03T20:55:14.580Z,100797.29
2017-12-03T20:57:42.323Z,100798.49
2017-12-03T21:00:09.847Z,100793.67
2017-12-03T21:02:37.307Z,100806.16
2017-12-03T21:05:05.443Z,100800.80
2017-12-03T21:07:32.890Z,100804.82
2017-12-03T21:10:00.471Z,100798.55
2017-12-03T21:12:29.220Z,100797.76
2017-12-03T21:14:56.850Z,100792.00
2017-12-03T21:17:26.582Z,100794.63
2017-12-03T21:19:54.123Z,100792.92
2017-12-03T21:22:23.676Z,100796.13
2017-12-03T21:24:51.212Z,100789.99
2017-12-03T21:27:18.769Z,100790.98
2017-12-03T21:29:51.698Z,100794.80
2017-12-03T21:32:19.724Z,100792.11
2017-12-03T21:34:47.345Z,100793.59
2017-12-03T21:37:14.978Z,100794.19
2017-12-03T21:39:42.463Z,100796.28
2017-12-03T21:42:09.941Z,100787.95
2017-12-03T21:44:37.486Z,100792.09
2017-12-03T21:47:05.060Z,100798.83
2017-12-03T21:49:32.602Z,100798.40
2017-12-03T21:52:00.219Z,100795.67
2017-12-03T21:54:27.798Z,100799.49
2017-12-03T21:56:55.310Z,100802.94
2017-12-03T21:59:22.830Z,100800.30
2017-12-03T22:01:50.280Z,100806.16
2017-12-03T22:04:17.792Z,100814.90
2017-12-03T22:06:45.801Z,100805.16
2017-12-03T22:09:13.374Z,100805.54
2017-12-03T22:11:40.940Z,100809.55
2017-12-03T22:14:08.425Z,100807.45
2017-12-03T22:16:35.916Z,100813.41
2017-12-03T22:19:03.455Z,100815.80
2017-12-03T22:21:30.945Z,100807.94
2017-12-03T22:23:58.515Z,100809.35
2017-12-03T22:26:26.024Z,100810.47
2017-12-03T22:28:53.544Z,100811.75
2017-12-03T22:31:21.048Z,100822.14
2017-12-03T22:33:51.374Z,100825.75
2017-12-03T22:36:19.061Z,100819.72
2017-12-03T22:41:45.405Z,100807.72
2017-12-03T22:44:13.302Z,100811.95
2017-12-03T22:46:40.928Z,100806.82
2017-12-03T22:49:08.681Z,100811.62
2017-12-03T22:51:36.176Z,100817.39
2017-12-03T22:54:03.711Z,100820.41
2017-12-03T22:56:31.555Z,100820.22
2017-12-03T22:58:59.734Z,100812.98
2017-12-03T23:01:27.717Z,100808.34
2017-12-03T23:03:55.250Z,100809.52
2017-12-03T23:06:22.761Z,100819.67
2017-12-03T23:08:50.330Z,100822.08
2017-12-03T23:11:18.059Z,100814.75
2017-12-03T23:13:45.543Z,100823.11
2017-12-03T23:16:13.011Z,100816.14
2017-12-03T23:18:40.559Z,100815.44
2017-12-03T23:21:08.099Z,100815.22
2017-12-03T23:23:35.562Z,100820.13
2017-12-03T23:26:03.172Z,100823.67
2017-12-03T23:28:30.694Z,100818.35
2017-12-03T23:30:58.142Z,100817.83
2017-12-03T23:33:25.604Z,100815.53
2017-12-03T23:35:53.095Z,100825.64
2017-12-03T23:38:20.592Z,100830.36
2017-12-03T23:40:48.363Z,100825.72
2017-12-03T23:43:15.845Z,100819.47
2017-12-03T23:45:43.279Z,100817.34
2017-12-03T23:48:10.758Z,100821.67
2017-12-03T23:50:38.216Z,100820.04
2017-12-03T23:53:05.699Z,100825.31
2017-12-03T23:55:33.184Z,100826.32
2017-12-03T23:58:00.896Z,100813.24
